Time;durP1;ratioP1;P1;durP2;ratioP2;P2;SDS_P1;SDS_P2;PMS_P1;PMS_P2;Temp;Humidity;BMP_temperature;BMP_pressure;BME280_temperature;BME280_humidity;BME280_pressure;Samples;Min_cycle;Max_cycle;Signal;HPM_P1;HPM_P2
2021/12/12 00:02:11;;;;;;;2.90;2.70;;;14.20;56.40;15.30;101418.00;;;;4969540;28;20172;-44
2021/12/12 00:04:39;;;;;;;2.97;2.67;;;14.20;56.50;15.20;101425.00;;;;4969848;28;20205;-42
2021/12/12 00:07:11;;;;;;;2.70;2.50;;;14.20;56.40;15.20;101420.00;;;;4969870;28;20187;-43
2021/12/12 00:09:44;;;;;;;3.03;2.77;;;14.20;56.60;15.20;101424.00;;;;4970063;28;20180;-42
2021/12/12 00:12:15;;;;;;;3.00;2.70;;;14.10;56.40;15.20;101426.00;;;;4969131;28;20200;-43
2021/12/12 00:14:41;;;;;;;2.93;2.63;;;14.10;56.40;15.20;101413.00;;;;4969918;28;20298;-43
2021/12/12 00:17:07;;;;;;;2.60;2.40;;;14.10;56.70;15.20;101425.00;;;;4969551;28;20698;-42
2021/12/12 00:19:35;;;;;;;3.00;2.70;;;14.10;56.50;15.20;101433.00;;;;4969794;28;20909;-43
2021/12/12 00:22:03;;;;;;;2.67;2.47;;;14.10;56.50;15.10;101412.00;;;;4969110;28;20232;-43
2021/12/12 00:24:29;;;;;;;3.03;2.70;;;14.10;56.80;15.10;101424.00;;;;4969254;28;20805;-43
2021/12/12 00:26:55;;;;;;;2.90;2.60;;;14.10;56.70;15.10;101419.00;;;;4969502;28;20169;-43
2021/12/12 00:29:21;;;;;;;3.43;2.60;;;14.00;56.80;15.10;101426.00;;;;4969430;28;20173;-43
2021/12/12 00:31:47;;;;;;;3.00;2.70;;;14.00;56.60;15.10;101425.00;;;;4969061;28;20782;-42
2021/12/12 00:34:14;;;;;;;2.80;2.60;;;14.00;56.70;15.00;101424.00;;;;4969192;28;20208;-43
2021/12/12 00:36:41;;;;;;;2.80;2.50;;;14.00;56.60;15.00;101420.00;;;;4969138;28;20304;-43
2021/12/12 00:39:21;;;;;;;2.60;2.40;;;13.90;56.70;15.00;101428.00;;;;4969180;28;20180;-43
2021/12/12 00:42:09;;;;;;;2.50;2.30;;;13.90;56.60;15.00;101430.00;;;;4967627;28;20181;-43
2021/12/12 00:44:37;;;;;;;2.77;2.57;;;13.90;56.50;15.00;101426.00;;;;4968992;28;20201;-42
2021/12/12 00:47:03;;;;;;;2.70;2.40;;;13.90;56.60;14.90;101423.00;;;;4969004;28;20184;-43
2021/12/12 00:49:29;;;;;;;3.37;2.60;;;13.90;56.60;14.90;101419.00;;;;4969083;28;20184;-43
2021/12/12 00:51:55;;;;;;;2.67;2.47;;;13.90;56.70;14.90;101432.00;;;;4967440;28;20224;-43
2021/12/12 00:54:21;;;;;;;2.77;2.47;;;13.80;56.90;14.90;101428.00;;;;4968922;28;20201;-43
2021/12/12 00:56:47;;;;;;;3.53;2.50;;;13.80;56.60;14.90;101427.00;;;;4969156;28;20176;-43
2021/12/12 00:59:13;;;;;;;2.70;2.50;;;13.80;56.60;14.90;101418.00;;;;4968903;28;20240;-42
2021/12/12 01:01:46;;;;;;;2.77;2.50;;;13.80;56.60;14.90;101414.00;;;;4968855;28;20173;-43
2021/12/12 01:04:26;;;;;;;2.87;2.47;;;13.70;56.50;14.80;101422.00;;;;4968784;28;20207;-43
2021/12/12 01:06:53;;;;;;;2.50;2.30;;;13.80;56.70;14.80;101426.00;;;;4967275;28;20162;-42
2021/12/12 01:09:31;;;;;;;2.80;2.33;;;13.70;56.50;14.80;101398.00;;;;4968556;28;20261;-43
2021/12/12 01:11:59;;;;;;;2.60;2.40;;;13.70;56.60;14.80;101395.00;;;;4968315;28;20675;-42
2021/12/12 01:14:33;;;;;;;3.47;2.57;;;13.70;56.50;14.80;101382.00;;;;4968151;28;20280;-43
2021/12/12 01:17:06;;;;;;;2.70;2.50;;;13.70;56.80;14.80;101395.00;;;;4968631;28;20180;-43
2021/12/12 01:19:44;;;;;;;2.73;2.50;;;13.70;56.60;14.80;101405.00;;;;4968481;28;20168;-43
2021/12/12 01:22:16;;;;;;;2.50;2.30;;;13.70;56.50;14.70;101402.00;;;;4968674;28;20198;-43
2021/12/12 01:24:46;;;;;;;2.60;2.40;;;13.60;56.40;14.70;101404.00;;;;4968515;28;20252;-43
2021/12/12 01:27:12;;;;;;;2.50;2.30;;;13.70;56.70;14.70;101401.00;;;;4968317;28;20232;-43
2021/12/12 01:29:38;;;;;;;2.40;2.20;;;13.60;56.60;14.70;101399.00;;;;4967585;28;20181;-43
2021/12/12 01:32:09;;;;;;;2.50;2.30;;;13.60;56.50;14.70;101390.00;;;;4967735;28;20177;-43
2021/12/12 01:34:34;;;;;;;2.50;2.30;;;13.60;56.40;14.60;101392.00;;;;4967988;28;20204;-42
2021/12/12 01:39:59;;;;;;;2.37;2.17;;;13.60;56.50;14.60;101403.00;;;;4968368;28;20169;-43
2021/12/12 01:42:35;;;;;;;2.50;2.30;;;13.50;56.40;14.60;101402.00;;;;4967855;28;20169;-43
2021/12/12 01:45:13;;;;;;;2.60;2.40;;;13.50;56.40;14.60;101399.00;;;;4967064;28;20779;-42
2021/12/12 01:47:58;;;;;;;2.40;2.20;;;13.50;56.40;14.60;101408.00;;;;4967924;28;20196;-43
2021/12/12 01:50:40;;;;;;;2.77;2.43;;;13.50;56.40;14.60;101407.00;;;;4966929;28;20560;-43
2021/12/12 01:53:09;;;;;;;2.73;2.17;;;13.50;56.50;14.50;101405.00;;;;4967436;28;20224;-42
2021/12/12 01:56:13;;;;;;;2.53;2.33;;;13.50;56.20;14.60;101389.00;;;;4967584;28;20208;-42
2021/12/12 01:58:41;;;;;;;2.40;2.10;;;13.60;56.10;14.60;101391.00;;;;4967856;28;20598;-43
2021/12/12 02:01:18;;;;;;;2.93;2.40;;;13.90;56.00;14.70;101391.00;;;;4966459;28;20173;-42
2021/12/12 02:03:55;;;;;;;3.10;2.30;;;14.10;55.70;14.80;101400.00;;;;4967497;28;20810;-42
2021/12/12 02:06:22;;;;;;;2.73;2.30;;;14.30;55.40;14.90;101387.00;;;;4966861;28;20694;-42
2021/12/12 02:08:48;;;;;;;2.10;1.90;;;14.70;55.20;15.10;101387.00;;;;4967782;28;20176;-42
2021/12/12 02:11:17;;;;;;;2.30;2.10;;;14.90;54.70;15.20;101388.00;;;;4966356;28;20170;-42
2021/12/12 02:13:47;;;;;;;3.23;2.30;;;15.10;54.40;15.40;101387.00;;;;4967001;28;20272;-42
2021/12/12 02:16:13;;;;;;;2.60;2.20;;;15.30;54.30;15.50;101387.00;;;;4967563;28;20298;-43
2021/12/12 02:18:44;;;;;;;2.20;2.00;;;15.40;54.30;15.60;101371.00;;;;4967513;28;20184;-42
2021/12/12 02:21:22;;;;;;;2.23;2.00;;;15.40;54.30;15.70;101382.00;;;;4967286;28;20141;-43
2021/12/12 02:35:24;;;;;;;2.10;1.93;;;15.60;54.40;16.00;101378.00;;;;4967195;28;20191;-41
2021/12/12 02:37:52;;;;;;;2.13;1.93;;;15.60;54.50;16.00;101380.00;;;;4967238;28;20157;-42
2021/12/12 02:40:39;;;;;;;2.10;2.00;;;15.50;54.50;16.00;101371.00;;;;4950020;28;20260;-43
2021/12/12 02:43:06;;;;;;;2.10;1.70;;;15.40;54.50;16.00;101380.00;;;;4966703;28;20228;-42
2021/12/12 02:45:33;;;;;;;2.10;1.90;;;15.50;54.70;16.00;101367.00;;;;4967591;28;20188;-42
2021/12/12 02:48:02;;;;;;;2.10;1.90;;;15.50;54.70;16.10;101293.00;;;;4966828;28;20277;-42
2021/12/12 02:50:43;;;;;;;2.53;2.10;;;15.50;54.80;16.10;101366.00;;;;4967262;28;20181;-42
2021/12/12 02:53:23;;;;;;;2.53;2.10;;;15.40;54.80;16.10;101380.00;;;;4966196;28;20337;-42
2021/12/12 02:55:56;;;;;;;2.47;2.10;;;15.40;54.90;16.10;101366.00;;;;4967051;28;20188;-43
2021/12/12 02:58:22;;;;;;;2.03;1.90;;;15.40;54.90;16.10;101367.00;;;;4967094;28;20239;-43
2021/12/12 03:00:59;;;;;;;2.10;1.83;;;15.40;54.90;16.10;101361.00;;;;4966631;28;20193;-42
2021/12/12 03:03:27;;;;;;;2.07;1.90;;;15.30;54.90;16.10;101366.00;;;;4966462;28;20719;-42
2021/12/12 03:05:53;;;;;;;2.20;2.00;;;15.30;55.00;16.10;101358.00;;;;4966830;28;20211;-42
2021/12/12 03:08:19;;;;;;;2.20;2.00;;;15.30;55.00;16.10;101358.00;;;;4966696;28;20212;-43
2021/12/12 03:10:47;;;;;;;2.10;1.90;;;15.30;55.00;16.10;101370.00;;;;4967220;28;20264;-42
2021/12/12 03:13:13;;;;;;;2.10;1.90;;;15.30;55.00;16.00;101372.00;;;;4966828;28;20200;-43
2021/12/12 03:15:40;;;;;;;3.20;1.83;;;15.20;55.00;16.00;101372.00;;;;4966173;28;20675;-43
2021/12/12 03:18:17;;;;;;;3.10;2.00;;;15.20;55.00;16.00;101373.00;;;;4966840;28;20180;-42
2021/12/12 03:20:49;;;;;;;2.43;2.03;;;15.10;55.20;16.00;101368.00;;;;4967302;28;20161;-42
2021/12/12 03:23:33;;;;;;;2.27;2.07;;;15.10;55.30;16.00;101371.00;;;;4966858;28;20311;-42
2021/12/12 03:26:10;;;;;;;2.67;2.13;;;15.10;55.30;16.00;101366.00;;;;4967532;28;20172;-41
2021/12/12 03:28:38;;;;;;;2.20;2.00;;;15.00;55.30;15.90;101368.00;;;;4967172;28;20157;-42
2021/12/12 03:31:09;;;;;;;2.50;2.03;;;15.00;55.30;15.90;101366.00;;;;4965731;28;20184;-41
2021/12/12 03:33:35;;;;;;;2.30;2.07;;;15.00;55.30;15.90;101359.00;;;;4966885;28;20952;-42
2021/12/12 03:36:04;;;;;;;2.10;1.90;;;15.00;55.30;15.80;101358.00;;;;4967387;28;20275;-44
2021/12/12 03:38:30;;;;;;;2.00;1.80;;;14.90;55.30;15.90;101347.00;;;;4967579;28;20740;-42
2021/12/12 03:40:58;;;;;;;2.00;1.90;;;14.90;55.40;15.80;101364.00;;;;4967323;28;20180;-42
2021/12/12 03:43:27;;;;;;;2.23;2.00;;;14.90;55.60;15.80;101378.00;;;;4966168;28;20201;-42
2021/12/12 03:45:53;;;;;;;2.00;1.90;;;14.90;55.60;15.80;101364.00;;;;4967127;28;20177;-42
2021/12/12 03:48:27;;;;;;;2.10;1.90;;;14.80;55.50;15.80;101361.00;;;;4967118;28;20312;-41
2021/12/12 03:50:55;;;;;;;3.10;1.83;;;14.80;55.50;15.80;101366.00;;;;4966896;28;20263;-41
2021/12/12 03:53:21;;;;;;;2.00;1.83;;;14.80;55.60;15.70;101372.00;;;;4966255;28;20209;-41
2021/12/12 03:55:48;;;;;;;1.90;1.80;;;14.70;55.60;15.70;101378.00;;;;4966496;28;20652;-41
2021/12/12 03:58:14;;;;;;;2.47;2.00;;;14.70;55.50;15.70;101370.00;;;;4966995;28;20173;-41
2021/12/12 04:00:52;;;;;;;1.87;1.77;;;14.70;55.70;15.70;101359.00;;;;4966933;28;20204;-41
2021/12/12 04:03:18;;;;;;;1.80;1.70;;;14.70;55.50;15.70;101366.00;;;;4966368;28;20185;-42
2021/12/12 04:05:46;;;;;;;2.10;1.90;;;14.60;55.50;15.70;101371.00;;;;4966732;28;20866;-41
2021/12/12 04:08:12;;;;;;;2.67;2.00;;;14.60;55.50;15.60;101376.00;;;;4966374;28;20173;-41
2021/12/12 04:10:37;;;;;;;2.10;1.90;;;14.60;55.60;15.60;101380.00;;;;4966583;28;20707;-42
2021/12/12 04:13:03;;;;;;;2.03;1.83;;;14.60;55.60;15.60;101379.00;;;;4966467;28;20203;-41
2021/12/12 04:15:29;;;;;;;1.90;1.80;;;14.60;55.60;15.60;101370.00;;;;4970042;28;20249;-41
2021/12/12 04:17:55;;;;;;;2.30;2.10;;;14.60;55.60;15.30;101378.00;;;;4969859;28;20621;-41
2021/12/12 04:20:28;;;;;;;2.03;1.83;;;14.60;55.70;15.50;101382.00;;;;4969594;28;20165;-43
2021/12/12 04:22:54;;;;;;;1.90;1.80;;;14.50;55.50;15.50;101370.00;;;;4969067;28;20639;-44
2021/12/12 04:25:22;;;;;;;2.43;1.70;;;14.50;55.60;15.50;101376.00;;;;4969666;28;20184;-43
2021/12/12 04:27:48;;;;;;;2.50;1.90;;;14.50;55.60;15.50;101375.00;;;;4969803;28;20268;-43
2021/12/12 04:30:14;;;;;;;2.47;1.90;;;14.50;55.60;15.50;101381.00;;;;4969794;28;20640;-43
2021/12/12 04:32:40;;;;;;;1.97;1.80;;;14.40;55.60;15.50;101375.00;;;;4968637;28;20558;-43
2021/12/12 04:35:10;;;;;;;2.10;1.90;;;14.40;55.70;15.40;101370.00;;;;4969438;28;20227;-43
2021/12/12 04:37:36;;;;;;;2.10;1.90;;;14.50;55.80;15.40;101363.00;;;;4969378;28;20636;-43
2021/12/12 04:40:02;;;;;;;2.50;2.10;;;14.40;55.70;15.40;101359.00;;;;4969598;28;20252;-42
2021/12/12 04:42:31;;;;;;;2.73;2.00;;;14.40;55.70;15.40;101380.00;;;;4969430;28;20177;-42
2021/12/12 04:45:16;;;;;;;1.93;1.73;;;14.30;55.60;15.40;101368.00;;;;4969180;28;20722;-41
2021/12/12 04:50:49;;;;;;;2.10;1.90;;;14.30;55.60;15.30;101365.00;;;;4955631;28;20177;-41
2021/12/12 04:53:45;;;;;;;2.70;1.87;;;14.30;55.60;15.30;101350.00;;;;4967651;28;20217;-41
2021/12/12 04:56:16;;;;;;;2.60;2.07;;;14.30;55.60;15.20;101356.00;;;;4963415;28;20225;-42
2021/12/12 04:58:58;;;;;;;2.20;1.80;;;14.30;55.70;15.20;101372.00;;;;4952110;28;20325;-40
2021/12/12 05:02:03;;;;;;;1.80;1.70;;;14.20;55.50;15.20;101358.00;;;;4949447;28;20279;-44
2021/12/12 05:04:37;;;;;;;2.00;1.80;;;14.30;55.70;15.20;101355.00;;;;4956182;28;20204;-43
2021/12/12 05:07:52;;;;;;;2.30;1.80;;;14.20;55.50;15.20;101342.00;;;;4965186;28;20184;-41
2021/12/12 05:10:45;;;;;;;1.83;1.70;;;14.20;55.70;15.10;101362.00;;;;4944117;28;20606;-43
2021/12/12 05:13:27;;;;;;;2.17;1.97;;;14.20;55.60;15.10;101356.00;;;;4966057;28;20205;-43
2021/12/12 05:15:58;;;;;;;1.83;1.73;;;14.20;55.80;15.10;101355.00;;;;4968656;28;20829;-43
2021/12/12 05:18:29;;;;;;;2.33;2.13;;;14.10;55.60;15.10;101336.00;;;;4966910;28;20204;-42
2021/12/12 05:21:09;;;;;;;2.20;1.60;;;14.10;55.60;15.10;101356.00;;;;4966837;28;20185;-43
2021/12/12 05:23:36;;;;;;;2.97;2.00;;;14.10;55.60;15.00;101356.00;;;;4966781;28;20255;-43
2021/12/12 05:26:10;;;;;;;1.90;1.80;;;14.10;55.60;15.00;101358.00;;;;4968316;28;20177;-42
2021/12/12 05:28:43;;;;;;;2.10;1.90;;;14.10;55.70;15.00;101351.00;;;;4966762;28;20203;-42
2021/12/12 05:31:09;;;;;;;2.90;2.00;;;14.00;55.60;15.00;101362.00;;;;4967649;28;20180;-42
2021/12/12 05:33:35;;;;;;;2.33;1.80;;;14.00;55.50;15.00;101269.00;;;;4966096;28;20264;-42
2021/12/12 05:36:01;;;;;;;2.30;1.70;;;14.00;55.50;15.00;101350.00;;;;4966766;28;20208;-43
2021/12/12 05:38:27;;;;;;;2.43;2.00;;;14.00;55.50;15.00;101352.00;;;;4966248;28;20173;-43
2021/12/12 05:40:53;;;;;;;2.47;1.97;;;14.00;55.60;15.00;101361.00;;;;4966648;28;20193;-42
2021/12/12 05:43:18;;;;;;;3.47;1.97;;;13.90;55.70;15.00;101364.00;;;;4966311;28;20232;-43
2021/12/12 05:45:45;;;;;;;2.07;1.90;;;14.00;55.60;14.90;101363.00;;;;4967659;28;20177;-42
2021/12/12 05:48:11;;;;;;;2.50;1.90;;;13.90;55.60;14.90;101322.00;;;;4967252;28;20708;-43
2021/12/12 05:50:38;;;;;;;4.10;2.00;;;13.90;55.50;14.90;101367.00;;;;4967694;28;20173;-43
2021/12/12 05:53:04;;;;;;;3.17;1.97;;;13.90;55.50;14.90;101365.00;;;;4967491;28;20391;-42
2021/12/12 05:55:32;;;;;;;2.40;2.00;;;13.90;55.60;14.90;101361.00;;;;4967649;28;20747;-42
2021/12/12 05:57:59;;;;;;;2.40;2.10;;;13.90;55.70;14.90;101365.00;;;;4967174;28;20176;-42
2021/12/12 06:00:46;;;;;;;5.07;1.90;;;13.90;55.70;14.90;101360.00;;;;4967684;28;20683;-43
2021/12/12 06:03:14;;;;;;;5.17;1.97;;;13.80;55.70;14.90;101369.00;;;;4966937;28;20220;-42
2021/12/12 06:05:40;;;;;;;2.27;2.07;;;13.80;55.70;14.80;101366.00;;;;4967371;28;20169;-43
2021/12/12 06:08:06;;;;;;;2.83;2.10;;;13.80;55.80;14.80;101371.00;;;;4966931;28;20228;-42
2021/12/12 06:10:34;;;;;;;2.20;1.90;;;13.80;55.70;14.80;101364.00;;;;4965881;28;20256;-42
2021/12/12 06:12:59;;;;;;;2.50;1.97;;;13.80;56.00;14.80;101368.00;;;;4965792;28;20192;-42
2021/12/12 06:15:27;;;;;;;2.30;1.90;;;13.80;55.80;14.80;101362.00;;;;4965891;28;20197;-43
2021/12/12 06:17:53;;;;;;;2.23;1.90;;;13.70;55.50;14.80;101357.00;;;;4966356;28;20200;-42
2021/12/12 06:20:22;;;;;;;2.33;1.90;;;13.80;55.80;14.80;101348.00;;;;4966093;28;20559;-42
2021/12/12 06:22:48;;;;;;;4.67;2.00;;;13.70;55.80;14.80;101357.00;;;;4965155;28;20193;-42
2021/12/12 06:25:14;;;;;;;6.73;2.07;;;13.70;55.80;14.80;101368.00;;;;4966287;28;20552;-42
2021/12/12 06:27:40;;;;;;;7.03;2.00;;;13.70;55.80;14.70;101364.00;;;;4967000;28;20177;-41
2021/12/12 06:30:09;;;;;;;2.40;1.93;;;13.70;55.80;14.70;101356.00;;;;4967018;28;20188;-41
2021/12/12 06:32:35;;;;;;;8.17;2.33;;;13.70;55.80;14.70;101362.00;;;;4966642;28;20165;-41
2021/12/12 06:35:01;;;;;;;5.97;2.10;;;13.70;56.00;14.70;101365.00;;;;4966591;28;20762;-40
2021/12/12 06:37:26;;;;;;;4.93;2.30;;;13.70;55.80;14.70;101379.00;;;;4966446;28;20165;-41
2021/12/12 06:39:53;;;;;;;6.70;2.10;;;13.60;55.70;14.70;101362.00;;;;4965795;28;20169;-41
2021/12/12 06:42:18;;;;;;;3.27;2.10;;;13.60;55.70;14.60;101375.00;;;;4966596;28;20169;-42
2021/12/12 06:44:44;;;;;;;4.80;2.07;;;13.60;55.60;14.60;101374.00;;;;4965494;28;20180;-41
2021/12/12 06:47:12;;;;;;;4.63;2.00;;;13.70;55.50;14.70;101364.00;;;;4965508;28;20191;-41
2021/12/12 06:49:38;;;;;;;4.50;2.10;;;13.90;55.70;14.80;101357.00;;;;4965082;28;20177;-41
2021/12/12 06:52:06;;;;;;;5.63;2.10;;;14.10;55.50;14.90;101366.00;;;;4965458;28;20177;-40
2021/12/12 06:54:32;;;;;;;4.17;2.23;;;14.30;55.40;15.00;101341.00;;;;4966460;28;20232;-42
2021/12/12 06:57:01;;;;;;;6.70;1.97;;;14.60;55.40;15.10;101361.00;;;;4966578;28;20173;-42
2021/12/12 06:59:30;;;;;;;2.87;1.93;;;14.90;55.30;15.30;101352.00;;;;4966585;28;20598;-41
2021/12/12 07:01:58;;;;;;;6.50;2.00;;;15.10;55.00;15.50;101366.00;;;;4966341;28;20269;-40
2021/12/12 07:04:24;;;;;;;9.40;2.23;;;15.30;55.00;15.60;101343.00;;;;4965279;28;20203;-41
2021/12/12 07:06:53;;;;;;;4.93;2.20;;;15.40;55.10;15.70;101359.00;;;;4965848;28;20177;-42
2021/12/12 07:09:19;;;;;;;6.83;2.30;;;15.50;55.20;15.80;101360.00;;;;4965042;28;20173;-41
2021/12/12 07:11:46;;;;;;;7.10;2.30;;;15.60;55.20;15.90;101355.00;;;;4965128;28;20644;-42
2021/12/12 07:14:12;;;;;;;6.67;2.50;;;15.60;55.00;16.00;101370.00;;;;4965934;28;20220;-41
2021/12/12 07:16:38;;;;;;;5.00;2.43;;;15.70;55.10;16.00;101352.00;;;;4966671;28;20169;-42
2021/12/12 07:19:04;;;;;;;4.80;2.37;;;15.70;55.00;16.10;101380.00;;;;4965041;28;20190;-45
2021/12/12 07:21:30;;;;;;;6.10;2.43;;;15.60;55.00;16.10;101366.00;;;;4966504;28;20189;-42
2021/12/12 07:23:58;;;;;;;7.27;2.30;;;15.60;55.00;16.20;101369.00;;;;4964948;28;20301;-42
2021/12/12 07:26:24;;;;;;;3.87;2.00;;;15.60;55.00;16.20;101371.00;;;;4949300;28;20177;-42
2021/12/12 07:28:51;;;;;;;4.10;2.37;;;15.60;55.10;16.20;101362.00;;;;4966039;28;20228;-41
2021/12/12 07:31:22;;;;;;;4.40;2.10;;;15.60;55.10;16.20;101379.00;;;;4965025;28;20170;-42
2021/12/12 07:33:49;;;;;;;4.17;2.20;;;15.60;55.20;16.20;101362.00;;;;4966044;28;20642;-42
2021/12/12 07:36:16;;;;;;;3.63;2.20;;;15.60;55.20;16.20;101358.00;;;;4966444;28;20208;-42
2021/12/12 07:38:44;;;;;;;5.07;2.00;;;15.60;55.30;16.30;101358.00;;;;4964156;28;20190;-41
2021/12/12 07:41:09;;;;;;;3.10;2.00;;;15.60;55.30;16.30;101348.00;;;;4966369;28;20196;-42
2021/12/12 07:43:35;;;;;;;3.67;2.20;;;15.50;55.10;16.20;101364.00;;;;4965018;28;20272;-42
2021/12/12 07:46:01;;;;;;;2.90;2.00;;;15.50;55.30;16.30;101376.00;;;;4966086;28;20813;-42
2021/12/12 07:48:27;;;;;;;5.33;2.30;;;15.50;55.30;16.30;101373.00;;;;4967396;28;20161;-42
2021/12/12 07:50:53;;;;;;;4.63;2.30;;;15.50;55.20;16.20;101360.00;;;;4969862;28;20559;-42
2021/12/12 07:53:19;;;;;;;2.70;1.90;;;15.40;55.50;16.20;101360.00;;;;4969510;28;20193;-42
2021/12/12 07:55:46;;;;;;;4.33;2.20;;;15.40;55.50;16.20;101361.00;;;;4969989;28;20949;-42
2021/12/12 07:58:14;;;;;;;2.77;1.97;;;15.40;55.60;16.20;101374.00;;;;4969418;28;20678;-41
2021/12/12 08:00:41;;;;;;;2.93;2.20;;;15.30;55.50;16.20;101381.00;;;;4970093;28;20204;-42
2021/12/12 08:03:09;;;;;;;5.63;2.20;;;15.30;55.50;16.20;101379.00;;;;4968028;28;20751;-43
2021/12/12 08:05:35;;;;;;;3.67;2.13;;;15.30;55.50;16.20;101398.00;;;;4968673;28;20227;-42
2021/12/12 08:08:10;;;;;;;2.20;2.00;;;15.30;55.50;16.20;101389.00;;;;4969608;28;20801;-42
2021/12/12 08:10:37;;;;;;;4.23;2.13;;;15.30;55.60;16.10;101395.00;;;;4969890;28;20161;-42
2021/12/12 08:13:04;;;;;;;1.93;1.83;;;15.30;55.60;16.10;101400.00;;;;4969161;28;20235;-42
2021/12/12 08:15:30;;;;;;;3.33;1.93;;;15.20;55.60;16.10;101400.00;;;;4968180;28;20272;-42
2021/12/12 08:17:56;;;;;;;3.43;2.10;;;15.20;55.60;16.10;101399.00;;;;4969647;28;20754;-42
2021/12/12 08:20:22;;;;;;;2.37;1.83;;;15.20;55.70;16.10;101399.00;;;;4968497;28;20177;-43
2021/12/12 08:22:48;;;;;;;2.10;1.90;;;15.10;55.70;16.10;101400.00;;;;4951753;28;20247;-41
2021/12/12 08:25:15;;;;;;;3.47;2.10;;;15.10;55.70;16.10;101405.00;;;;4968526;28;20239;-41
2021/12/12 08:27:41;;;;;;;2.87;2.20;;;15.10;55.70;16.00;101403.00;;;;4968968;28;20588;-42
2021/12/12 08:30:07;;;;;;;2.67;1.90;;;15.10;55.80;16.00;101413.00;;;;4969262;28;20181;-42
2021/12/12 08:32:33;;;;;;;2.20;2.00;;;15.00;55.70;16.00;101404.00;;;;4968664;28;20184;-42
2021/12/12 08:34:59;;;;;;;2.53;1.80;;;15.00;55.80;16.00;101407.00;;;;4967465;28;20197;-42
2021/12/12 08:37:29;;;;;;;2.33;1.87;;;15.00;56.00;16.00;101402.00;;;;4968052;28;20173;-42
2021/12/12 08:39:55;;;;;;;2.00;1.80;;;14.90;55.80;15.70;101405.00;;;;4968910;28;20161;-43
2021/12/12 08:42:26;;;;;;;3.13;1.93;;;14.90;55.90;16.00;101405.00;;;;4967583;28;20191;-42
2021/12/12 08:44:53;;;;;;;2.70;2.07;;;15.00;56.00;15.90;101401.00;;;;4967966;28;20173;-42
2021/12/12 08:47:19;;;;;;;2.10;1.90;;;14.90;55.90;15.90;101408.00;;;;4967437;28;20181;-42
2021/12/12 08:49:45;;;;;;;2.50;1.90;;;14.90;56.00;15.90;101413.00;;;;4967925;28;20847;-43
2021/12/12 08:52:21;;;;;;;2.53;1.90;;;14.80;56.00;15.90;101412.00;;;;4968498;28;20235;-42
2021/12/12 08:54:48;;;;;;;2.53;1.80;;;14.80;56.10;15.90;101422.00;;;;4968615;28;20232;-42
2021/12/12 08:57:31;;;;;;;2.40;2.10;;;14.90;56.20;15.80;101426.00;;;;4969023;28;20173;-42
2021/12/12 08:59:58;;;;;;;2.30;1.90;;;14.80;56.00;15.80;101421.00;;;;4968418;28;20165;-42
2021/12/12 09:02:24;;;;;;;2.80;2.00;;;14.80;56.00;15.80;101426.00;;;;4967413;28;20165;-42
2021/12/12 09:05:01;;;;;;;2.30;2.10;;;14.80;56.00;15.80;101423.00;;;;4967093;28;20255;-43
2021/12/12 09:07:34;;;;;;;1.80;1.70;;;14.80;56.00;15.80;101422.00;;;;4968457;28;20259;-43
2021/12/12 09:10:13;;;;;;;2.23;1.90;;;14.70;56.00;15.70;101439.00;;;;4967284;28;20691;-42
2021/12/12 09:12:53;;;;;;;2.37;1.90;;;14.70;56.10;15.70;101448.00;;;;4968210;28;20865;-42
2021/12/12 09:15:29;;;;;;;3.57;2.20;;;14.70;56.10;15.70;101434.00;;;;4967683;28;20247;-41
2021/12/12 09:18:03;;;;;;;2.03;1.87;;;14.70;56.00;15.70;101440.00;;;;4967202;28;20165;-42
2021/12/12 09:20:35;;;;;;;2.00;1.80;;;14.70;56.00;15.60;101429.00;;;;4967358;28;20782;-42
2021/12/12 09:23:07;;;;;;;1.97;1.83;;;14.70;56.00;15.60;101421.00;;;;4970728;28;20192;-42
2021/12/12 09:25:49;;;;;;;2.10;1.90;;;14.60;56.00;15.60;101441.00;;;;4971661;28;20181;-42
2021/12/12 09:28:40;;;;;;;2.20;1.80;;;14.60;56.00;15.60;101428.00;;;;4968250;28;20165;-43
2021/12/12 09:31:14;;;;;;;2.00;1.80;;;14.60;56.10;15.60;101432.00;;;;4968122;28;20188;-41
2021/12/12 09:33:54;;;;;;;1.80;1.70;;;14.60;56.10;15.60;101444.00;;;;4967959;28;20224;-42
2021/12/12 09:36:34;;;;;;;2.23;2.00;;;14.60;56.00;15.50;101427.00;;;;4966880;28;20586;-42
2021/12/12 09:39:27;;;;;;;2.30;1.90;;;14.60;56.00;15.50;101431.00;;;;4966679;28;20162;-41
2021/12/12 09:42:32;;;;;;;2.17;1.90;;;14.60;56.00;15.50;101437.00;;;;4967174;28;20157;-42
2021/12/12 09:45:11;;;;;;;1.80;1.70;;;14.50;55.90;15.50;101426.00;;;;4967841;28;20172;-41
2021/12/12 09:48:26;;;;;;;2.03;1.83;;;14.50;56.00;15.20;101433.00;;;;4966753;28;20181;-42
2021/12/12 09:51:14;;;;;;;2.07;1.93;;;14.50;55.90;15.40;101432.00;;;;4966252;28;20574;-42
2021/12/12 09:53:58;;;;;;;2.67;1.90;;;14.50;56.40;15.40;101430.00;;;;4966331;28;20189;-42
2021/12/12 09:56:57;;;;;;;2.40;2.00;;;14.50;56.50;15.40;101419.00;;;;4967172;28;20196;-42
2021/12/12 09:59:42;;;;;;;3.40;2.00;;;14.40;56.40;15.40;101426.00;;;;4956577;28;20186;-40
2021/12/12 10:02:33;;;;;;;3.57;2.10;;;14.50;56.40;15.40;101432.00;;;;4962446;28;20558;-42
2021/12/12 10:05:43;;;;;;;2.10;1.90;;;14.40;56.40;15.40;101420.00;;;;4956518;28;20256;-41
2021/12/12 10:08:37;;;;;;;3.10;1.90;;;14.50;56.50;15.30;101424.00;;;;4949305;29;20182;-42
2021/12/12 10:11:33;;;;;;;2.13;1.80;;;14.40;56.40;15.30;101423.00;;;;4949399;28;20158;-44
2021/12/12 10:14:04;;;;;;;2.07;1.80;;;14.40;56.40;15.30;101439.00;;;;4948830;29;20204;-42
2021/12/12 10:16:48;;;;;;;3.67;1.80;;;14.40;56.40;15.30;101432.00;;;;4949329;29;20162;-43
2021/12/12 10:19:41;;;;;;;2.50;1.80;;;14.30;56.30;15.30;101436.00;;;;4949961;28;20641;-42
2021/12/12 10:22:28;;;;;;;1.80;1.70;;;14.30;56.30;15.30;101426.00;;;;4952600;28;20209;-43
2021/12/12 10:25:14;;;;;;;2.57;1.70;;;14.30;56.30;15.30;101425.00;;;;4963308;28;20216;-42
2021/12/12 10:28:19;;;;;;;2.13;1.70;;;14.30;56.30;15.30;101433.00;;;;4968897;28;20181;-41
2021/12/12 10:31:22;;;;;;;2.13;1.80;;;14.30;56.30;15.30;101423.00;;;;4970515;28;20188;-41
2021/12/12 10:33:57;;;;;;;2.23;1.90;;;14.20;56.20;15.20;101429.00;;;;4971281;28;20687;-41
2021/12/12 10:36:31;;;;;;;2.83;1.90;;;14.20;56.40;15.20;101418.00;;;;4970050;28;20193;-42
2021/12/12 10:39:12;;;;;;;2.27;2.00;;;14.20;56.50;15.20;101425.00;;;;4953576;28;20529;-42
2021/12/12 10:41:40;;;;;;;2.10;1.90;;;14.20;56.50;15.20;101429.00;;;;4970061;28;20161;-43
2021/12/12 10:44:30;;;;;;;2.97;2.20;;;14.20;56.50;15.20;101420.00;;;;4969351;28;20306;-41
2021/12/12 10:47:16;;;;;;;2.33;1.93;;;14.10;56.50;15.20;101341.00;;;;4968948;28;20200;-42
2021/12/12 10:50:20;;;;;;;2.23;2.03;;;14.10;56.40;15.20;101434.00;;;;4968865;28;20176;-41
2021/12/12 10:53:19;;;;;;;2.57;2.13;;;14.10;56.40;15.10;101428.00;;;;4969090;28;20790;-42
2021/12/12 10:56:12;;;;;;;2.13;1.93;;;14.10;56.40;15.10;101422.00;;;;4968735;28;20208;-42
2021/12/12 10:58:49;;;;;;;2.23;2.03;;;14.10;56.40;15.10;101438.00;;;;4961407;28;20188;-43
2021/12/12 11:01:32;;;;;;;2.00;1.90;;;14.10;56.40;15.10;101431.00;;;;4968339;28;20255;-42
2021/12/12 11:04:18;;;;;;;2.20;2.00;;;14.10;56.40;15.10;101433.00;;;;4969771;28;20193;-42
2021/12/12 11:06:59;;;;;;;2.77;2.20;;;14.10;56.60;15.10;101429.00;;;;4970276;28;20171;-43
2021/12/12 11:09:38;;;;;;;2.23;2.10;;;14.00;56.30;15.10;101435.00;;;;4968210;28;20161;-42
2021/12/12 11:12:34;;;;;;;2.30;2.10;;;14.00;56.60;15.10;101437.00;;;;4968010;28;20184;-43
2021/12/12 11:15:08;;;;;;;2.30;2.10;;;14.00;56.40;15.00;101433.00;;;;4952706;28;20575;-42
2021/12/12 11:17:43;;;;;;;2.20;2.00;;;14.00;56.60;15.00;101432.00;;;;4968114;28;20542;-43
2021/12/12 11:20:25;;;;;;;2.03;1.83;;;14.00;56.60;15.00;101439.00;;;;4968260;28;20224;-42
2021/12/12 11:23:03;;;;;;;2.37;2.17;;;13.90;56.70;15.00;101431.00;;;;4970641;28;20184;-43
2021/12/12 11:25:47;;;;;;;2.00;1.90;;;14.00;56.40;15.00;101438.00;;;;4973311;28;20640;-42
2021/12/12 11:28:46;;;;;;;2.00;1.90;;;13.90;56.30;15.00;101443.00;;;;4972215;28;20165;-44
2021/12/12 11:31:26;;;;;;;2.27;2.07;;;13.90;57.00;15.00;101438.00;;;;4973570;28;20242;-42